Time;durP1;ratioP1;P1;durP2;ratioP2;P2;SDS_P1;SDS_P2;PMS_P1;PMS_P2;Temp;Humidity;BMP_temperature;BMP_pressure;BME280_temperature;BME280_humidity;BME280_pressure;Samples;Min_cycle;Max_cycle;Signal;HPM_P1;HPM_P2
2021/05/08 00:01:22;;;;;;;0.20;0.10;;;15.50;99.90;;;;;;20694134;28;20703;-74
2021/05/08 00:11:26;;;;;;;0.20;0.20;;;15.60;99.90;;;;;;20693220;28;20369;-75
2021/05/08 00:21:30;;;;;;;0.33;0.33;;;15.60;99.90;;;;;;20691901;28;20203;-76
2021/05/08 00:31:33;;;;;;;0.33;0.30;;;15.70;99.90;;;;;;20705511;28;20218;-76
2021/05/08 00:41:36;;;;;;;0.27;0.27;;;15.60;99.90;;;;;;20708001;28;20221;-76
2021/05/08 00:51:40;;;;;;;0.20;0.20;;;15.60;99.90;;;;;;20688791;28;20594;-76
2021/05/08 01:01:43;;;;;;;9.43;0.53;;;15.70;99.90;;;;;;20687237;28;20360;-74
2021/05/08 01:11:46;;;;;;;0.20;0.20;;;15.70;99.90;;;;;;20700941;28;20272;-78
2021/05/08 01:21:50;;;;;;;0.37;0.37;;;15.70;99.90;;;;;;20702965;28;20195;-75
2021/05/08 01:31:54;;;;;;;0.63;0.30;;;15.60;99.90;;;;;;20701186;28;20246;-76
2021/05/08 01:41:58;;;;;;;0.30;0.27;;;15.60;99.90;;;;;;20702921;28;20195;-77
2021/05/08 01:52:01;;;;;;;0.20;0.10;;;15.50;99.90;;;;;;20701200;28;20554;-78
2021/05/08 02:02:05;;;;;;;2.30;1.40;;;15.50;99.90;;;;;;20702296;28;20226;-76
2021/05/08 02:12:08;;;;;;;0.40;0.40;;;15.40;99.90;;;;;;20698798;28;20337;-75
2021/05/08 02:22:11;;;;;;;0.40;0.33;;;15.40;99.90;;;;;;20699134;28;20687;-75
2021/05/08 02:32:14;;;;;;;0.20;0.10;;;15.40;99.90;;;;;;20696129;28;20223;-75
2021/05/08 02:42:18;;;;;;;0.47;0.40;;;15.40;99.90;;;;;;20697621;28;20766;-76
2021/05/08 02:52:22;;;;;;;0.20;0.10;;;15.40;99.90;;;;;;20695009;28;20225;-76
2021/05/08 03:02:26;;;;;;;0.37;0.37;;;15.30;99.90;;;;;;20696575;28;20223;-76
2021/05/08 03:12:30;;;;;;;0.93;0.23;;;15.30;99.90;;;;;;20695294;28;20229;-74
2021/05/08 03:22:34;;;;;;;0.27;0.27;;;15.40;99.90;;;;;;20695629;28;20199;-74
2021/05/08 03:32:38;;;;;;;0.73;0.73;;;15.40;99.90;;;;;;20690541;28;20227;-73
2021/05/08 03:42:42;;;;;;;0.37;0.37;;;15.40;99.90;;;;;;20692446;28;20217;-74
2021/05/08 03:52:45;;;;;;;0.53;0.27;;;15.40;99.90;;;;;;20692767;28;20222;-75
2021/05/08 04:02:48;;;;;;;0.20;0.10;;;15.40;99.90;;;;;;20692931;28;20231;-77
2021/05/08 04:12:51;;;;;;;0.50;0.50;;;15.40;99.90;;;;;;20693289;28;20238;-77
2021/05/08 04:22:54;;;;;;;1.27;0.43;;;15.50;99.90;;;;;;20694516;28;20285;-76
2021/05/08 04:32:57;;;;;;;0.83;0.40;;;15.50;99.90;;;;;;20674654;28;20223;-79
2021/05/08 04:43:01;;;;;;;0.20;0.10;;;15.50;99.90;;;;;;20693331;28;20296;-78
2021/05/08 04:53:03;;;;;;;0.20;0.10;;;15.50;99.90;;;;;;20687212;28;20229;-76
2021/05/08 05:03:07;;;;;;;1.07;0.50;;;15.70;99.90;;;;;;20689691;28;20229;-77
2021/05/08 05:13:10;;;;;;;0.30;0.30;;;15.80;99.90;;;;;;20696781;28;20273;-81
2021/05/08 05:23:14;;;;;;;0.20;0.20;;;15.90;99.90;;;;;;20704567;28;20198;-80
2021/05/08 05:33:16;;;;;;;0.20;0.20;;;16.10;99.90;;;;;;20703019;28;20229;-76
2021/05/08 05:43:20;;;;;;;0.30;0.27;;;16.30;99.90;;;;;;20713739;28;20745;-78
2021/05/08 05:53:23;;;;;;;2.00;1.23;;;16.70;99.90;;;;;;20700821;28;20277;-77
2021/05/08 06:03:26;;;;;;;0.20;0.10;;;17.00;99.90;;;;;;20702791;28;20231;-78
2021/05/08 06:13:32;;;;;;;0.20;0.10;;;17.30;99.90;;;;;;20701596;28;20215;-80
2021/05/08 06:23:35;;;;;;;0.20;0.13;;;17.70;99.90;;;;;;20704293;28;20287;-78
2021/05/08 06:33:38;;;;;;;0.20;0.10;;;18.20;99.90;;;;;;20697919;28;20254;-78
2021/05/08 06:43:41;;;;;;;0.20;0.10;;;18.50;99.90;;;;;;20698957;28;20553;-78
2021/05/08 06:53:44;;;;;;;0.77;0.77;;;18.80;99.90;;;;;;20696515;28;20245;-80
2021/05/08 07:03:47;;;;;;;0.67;0.40;;;19.00;99.90;;;;;;20697357;28;20238;-78
2021/05/08 07:13:50;;;;;;;0.20;0.20;;;19.20;99.90;;;;;;20692609;28;20222;-75
2021/05/08 07:23:54;;;;;;;0.80;0.43;;;19.50;99.90;;;;;;20697102;28;20191;-78
2021/05/08 07:33:56;;;;;;;0.50;0.30;;;19.60;99.90;;;;;;20692977;28;20246;-78
2021/05/08 07:43:59;;;;;;;0.73;0.67;;;19.60;99.90;;;;;;20700967;28;20338;-76
2021/05/08 07:54:02;;;;;;;0.40;0.40;;;19.70;99.90;;;;;;20696318;28;20223;-74
2021/05/08 08:04:06;;;;;;;0.73;0.40;;;19.70;99.90;;;;;;20695349;28;20264;-74
2021/05/08 08:14:09;;;;;;;0.40;0.40;;;19.70;99.90;;;;;;20692918;28;20313;-77
2021/05/08 08:24:13;;;;;;;0.70;0.63;;;20.00;99.90;;;;;;20695566;28;20757;-77
2021/05/08 08:34:19;;;;;;;0.30;0.30;;;20.20;99.90;;;;;;20690097;28;20276;-76
2021/05/08 08:44:22;;;;;;;1.90;1.27;;;20.40;99.90;;;;;;20691867;28;20294;-77
2021/05/08 08:54:25;;;;;;;0.93;0.67;;;21.00;99.90;;;;;;20700914;28;20607;-77
2021/05/08 09:04:28;;;;;;;0.20;0.10;;;20.90;99.90;;;;;;20706082;28;20706;-76
2021/05/08 09:14:33;;;;;;;0.87;0.40;;;20.90;99.90;;;;;;20704499;28;20257;-72
2021/05/08 09:24:54;;;;;;;1.63;0.40;;;20.80;99.90;;;;;;20702590;28;20210;-74
2021/05/08 09:35:05;;;;;;;0.67;0.67;;;20.60;99.90;;;;;;20702264;28;20300;-76
2021/05/08 09:45:10;;;;;;;2.27;1.43;;;20.90;99.90;;;;;;20700261;28;20656;-79
2021/05/08 09:55:18;;;;;;;3.17;1.07;;;20.70;99.90;;;;;;20698197;28;20304;-77
2021/05/08 10:05:22;;;;;;;3.87;0.87;;;20.60;99.90;;;;;;20700679;28;20638;-78
2021/05/08 10:15:25;;;;;;;0.30;0.30;;;20.60;99.90;;;;;;20709800;28;20707;-80
2021/05/08 10:25:37;;;;;;;1.90;0.83;;;21.50;99.90;;;;;;20685344;28;20441;-80
2021/05/08 10:35:45;;;;;;;0.40;0.40;;;21.30;99.90;;;;;;20696083;28;20365;-74
2021/05/08 10:45:59;;;;;;;0.30;0.30;;;21.50;99.90;;;;;;20698280;28;20191;-76
2021/05/08 10:56:03;;;;;;;0.97;0.30;;;21.30;99.90;;;;;;20696294;28;20211;-78
2021/05/08 11:06:15;;;;;;;5.10;0.70;;;21.60;99.90;;;;;;20699266;28;20234;-77
2021/05/08 11:16:19;;;;;;;0.60;0.43;;;23.00;99.90;;;;;;20709314;23;20384;-74
2021/05/08 11:26:44;;;;;;;0.37;0.33;;;22.60;99.90;;;;;;20699334;28;20229;-76
2021/05/08 11:36:50;;;;;;;0.93;0.67;;;22.60;99.90;;;;;;20702417;28;20692;-79
2021/05/08 11:46:59;;;;;;;0.38;0.38;;;23.10;99.90;;;;;;20673672;28;20695;-75
2021/05/08 11:57:02;;;;;;;0.85;0.85;;;24.00;99.90;;;;;;20692258;28;20309;-76
2021/05/08 12:07:06;;;;;;;1.85;0.57;;;24.30;99.90;;;;;;20694370;28;20226;-83
2021/05/08 12:17:12;;;;;;;0.68;0.65;;;24.20;99.90;;;;;;20694593;28;20250;-79
2021/05/08 12:27:17;;;;;;;10.25;0.98;;;24.60;99.90;;;;;;20709855;28;21132;-83
2021/05/08 12:37:21;;;;;;;13.93;2.17;;;24.90;99.90;;;;;;20708545;28;20238;-78
2021/05/08 12:47:38;;;;;;;1.10;0.85;;;24.90;99.90;;;;;;20716618;23;20243;-83
2021/05/08 13:08:11;;;;;;;0.63;0.63;;;25.40;99.90;;;;;;20364269;29;20236;-81
2021/05/08 13:18:14;;;;;;;1.70;0.93;;;24.80;99.90;;;;;;20388155;29;20288;-77
2021/05/08 13:28:18;;;;;;;1.48;0.95;;;25.40;99.90;;;;;;20396653;29;20233;-82
2021/05/08 13:38:22;;;;;;;2.60;1.63;;;27.90;99.90;;;;;;20390914;29;20225;-82
2021/05/08 13:48:26;;;;;;;0.52;0.52;;;27.30;99.90;;;;;;20391282;29;20655;-78
2021/05/08 13:58:28;;;;;;;1.00;0.77;;;26.60;99.90;;;;;;20390217;29;20220;-86
2021/05/08 14:08:32;;;;;;;0.95;0.90;;;26.10;99.90;;;;;;20303770;29;20241;-87
2021/05/08 14:18:34;;;;;;;1.65;1.00;;;27.00;99.90;;;;;;20304072;29;20198;-78
2021/05/08 14:28:38;;;;;;;2.60;0.70;;;27.40;99.90;;;;;;20302414;29;20232;-75
2021/05/08 14:38:44;;;;;;;5.15;1.42;;;26.80;99.90;;;;;;20298356;29;20207;-77
2021/05/08 14:48:47;;;;;;;1.23;1.10;;;27.30;99.90;;;;;;20296004;29;20230;-76
2021/05/08 14:58:50;;;;;;;1.00;1.00;;;27.90;99.90;;;;;;20307841;29;20341;-81
2021/05/08 15:08:54;;;;;;;1.05;0.90;;;27.30;99.90;;;;;;20375435;29;20233;-74
2021/05/08 15:18:56;;;;;;;14.98;1.83;;;27.80;99.90;;;;;;20376577;29;20284;-78
2021/05/08 15:29:00;;;;;;;5.70;1.45;;;28.00;99.90;;;;;;20369988;29;20694;-83
2021/05/08 15:39:05;;;;;;;1.17;1.08;;;27.90;99.90;;;;;;20372870;29;20205;-75
2021/05/08 15:49:09;;;;;;;2.92;1.48;;;26.90;99.90;;;;;;20389285;29;20237;-75
2021/05/08 15:59:11;;;;;;;0.63;0.63;;;26.60;99.90;;;;;;20378019;29;20228;-76
2021/05/08 16:09:15;;;;;;;0.85;0.65;;;26.70;99.90;;;;;;20369783;29;20226;-79
2021/05/08 16:19:17;;;;;;;1.98;1.52;;;25.90;99.90;;;;;;20363842;29;20202;-73
2021/05/08 16:29:21;;;;;;;3.60;2.13;;;23.80;99.90;;;;;;20368322;29;20224;-68
2021/05/08 16:39:23;;;;;;;3.03;2.33;;;23.20;99.90;;;;;;20349193;29;20194;-73
2021/05/08 16:49:30;;;;;;;1.57;1.00;;;23.20;99.90;;;;;;20383267;29;20257;-71
2021/05/08 16:59:33;;;;;;;5.30;1.60;;;23.20;99.90;;;;;;20355449;29;20273;-74
2021/05/08 17:09:37;;;;;;;2.40;1.23;;;23.70;99.90;;;;;;20359138;29;20349;-71
2021/05/08 17:19:41;;;;;;;1.05;0.60;;;24.60;99.90;;;;;;20320652;29;20268;-70
2021/05/08 17:29:48;;;;;;;4.77;1.63;;;24.10;99.90;;;;;;20302436;29;20230;-69
2021/05/08 17:39:51;;;;;;;4.07;1.80;;;24.10;99.90;;;;;;20319247;29;20214;-69
2021/05/08 17:49:54;;;;;;;2.57;0.67;;;22.30;99.90;;;;;;20303111;29;20317;-71
2021/05/08 17:59:59;;;;;;;21.37;3.57;;;23.40;99.90;;;;;;20313841;29;20225;-73
2021/05/08 18:10:02;;;;;;;2.87;1.60;;;21.90;99.90;;;;;;20379291;29;20276;-72
2021/05/08 18:20:06;;;;;;;1.50;1.40;;;21.00;99.90;;;;;;20379632;29;20209;-72
2021/05/08 18:30:12;;;;;;;1.63;0.93;;;20.30;99.90;;;;;;20380048;29;20217;-72
2021/05/08 18:40:15;;;;;;;0.93;0.80;;;20.00;99.90;;;;;;20379207;29;20209;-73
2021/05/08 18:50:19;;;;;;;1.20;1.07;;;19.80;99.90;;;;;;20376985;29;20232;-73
2021/05/08 19:00:22;;;;;;;0.70;0.70;;;19.60;99.90;;;;;;20360046;29;20225;-73
2021/05/08 19:10:26;;;;;;;4.50;1.20;;;19.40;99.90;;;;;;20297224;29;20225;-72
2021/05/08 19:20:35;;;;;;;1.47;1.33;;;19.00;99.90;;;;;;20320145;29;20276;-73
2021/05/08 19:30:38;;;;;;;3.47;1.30;;;18.80;99.90;;;;;;20293706;29;20236;-72
2021/05/08 19:40:41;;;;;;;1.87;0.70;;;18.70;99.90;;;;;;20296075;29;20739;-73
2021/05/08 19:50:45;;;;;;;0.37;0.33;;;18.70;99.90;;;;;;20289608;29;20342;-73
2021/05/08 20:00:48;;;;;;;3.53;1.03;;;18.70;99.90;;;;;;20313021;29;20229;-72
2021/05/08 20:10:52;;;;;;;1.20;0.80;;;18.60;99.90;;;;;;20368442;29;20255;-73
2021/05/08 20:20:55;;;;;;;1.97;0.80;;;18.20;99.90;;;;;;20371916;29;20201;-74
2021/05/08 20:30:59;;;;;;;1.50;1.40;;;18.10;99.90;;;;;;20366041;29;20596;-77
2021/05/08 20:41:02;;;;;;;1.07;1.00;;;17.60;99.90;;;;;;20372843;29;20714;-77
2021/05/08 20:51:05;;;;;;;1.60;1.50;;;17.50;99.90;;;;;;20384088;29;20249;-76
2021/05/08 21:01:09;;;;;;;0.50;0.40;;;17.40;99.90;;;;;;20385911;29;20233;-77
2021/05/08 21:11:13;;;;;;;2.77;1.97;;;17.10;99.90;;;;;;20382911;29;20228;-77
2021/05/08 21:21:16;;;;;;;2.73;0.97;;;17.10;99.90;;;;;;20381418;29;20202;-75
2021/05/08 21:31:20;;;;;;;1.90;1.33;;;17.20;99.90;;;;;;20380986;29;20232;-78
2021/05/08 21:41:22;;;;;;;3.13;1.30;;;17.00;99.90;;;;;;20384468;29;20507;-76
2021/05/08 21:51:26;;;;;;;14.80;1.50;;;16.90;99.90;;;;;;20381409;29;20254;-80
2021/05/08 22:01:29;;;;;;;0.30;0.30;;;16.80;99.90;;;;;;20362613;29;20305;-80
2021/05/08 22:11:32;;;;;;;2.30;0.67;;;16.60;99.90;;;;;;20301052;29;20566;-78
2021/05/08 22:21:35;;;;;;;0.77;0.77;;;16.60;99.90;;;;;;20302561;29;20728;-76
2021/05/08 22:31:39;;;;;;;8.13;1.33;;;16.60;99.90;;;;;;20300002;29;20676;-76
2021/05/08 22:41:41;;;;;;;0.87;0.87;;;16.50;99.90;;;;;;20359752;29;20774;-76
2021/05/08 22:51:45;;;;;;;1.03;0.57;;;16.40;99.90;;;;;;20376068;29;20221;-75
2021/05/08 23:01:48;;;;;;;1.17;0.70;;;16.40;99.90;;;;;;20348971;29;20694;-75
2021/05/08 23:11:52;;;;;;;0.60;0.60;;;16.50;99.90;;;;;;20327999;29;20255;-75
2021/05/08 23:21:57;;;;;;;2.40;1.23;;;16.40;99.90;;;;;;20296037;29;20274;-76
2021/05/08 23:32:01;;;;;;;1.83;1.23;;;16.90;99.90;;;;;;20356440;29;20252;-76
2021/05/08 23:42:06;;;;;;;2.90;1.47;;;17.10;99.90;;;;;;20376529;29;20217;-75
2021/05/08 23:52:10;;;;;;;2.87;1.27;;;16.90;99.90;;;;;;20369829;29;20217;-77
